OISA  Abadeh Airport

Add Bookmark

Abadeh, Iran

Status
Operational
Latitude Longitude
31° 10' 0" N 52° 40' 0" E
31.166668 52.666668
Local (DST + 5) UTC (GMT + 4)
Oct 2, 2014 07:58 Oct 2, 2014 16:28
Sunrise-Sunset Local UTC
Begin Civil Twilight 05:28 01:58
Sunrise 05:52 02:22
Sunset 05:44 14:14
End Civil Twilight 06:08 14:38

Current Weather

METAR Observed VFR
OISA 021552Z 24014KT CAVOK 22/M01 Q1024 Thu, Oct 2, 2014 @ 15:52 UTC
(36 Minutes ago)
Visual Flight Rules
Wind Visibility Clouds Conditions
240° at 14 knots (26 kph) 10 km or more
  • Clear skies
  • No significant weather
Temperatures Readings Precipitation
Current Temp 22°C (72°F)
Dewpoint -1°C (30°F)
Humidity 22%
Altimeter 30.24"Hg
Sea Level Pressure 1024mb
Field Elevation 6574.8'
None Recorded

Additional weather within a 185.2km radius of OISA

Map ICAO Location
OISY 118.7km W (244°)
OIYY 173.2km E (061°)
OISS 180.9km S (182°)

24 Hour Weather History

Loading
-

24 Hour Weather Graphs

Loading
-

CheckWX.com is intended as a tool to help pilots better visualize weather data. It is not intended as a substitute for an official weather briefing obtained from a Flight Service Station. CheckWX.com does not meet the FAA requirements for an official pre-flight weather briefing. Therefore, it's important that pilots still call and obtain an official FSS pre-flight weather briefing.